createdAt,value
2016-11-03T00:04:24.426Z,14
2016-11-03T00:08:00.975Z,14
2016-11-03T00:11:38.031Z,14
2016-11-03T00:14:55.098Z,14
2016-11-03T00:18:51.573Z,14
2016-11-03T00:22:28.604Z,14
2016-11-03T00:25:45.743Z,14
2016-11-03T00:29:42.657Z,14
2016-11-03T00:32:59.926Z,13
2016-11-03T00:37:02.795Z,13
2016-11-03T00:40:38.919Z,13
2016-11-03T00:44:15.371Z,13
2016-11-03T00:47:51.422Z,13
2016-11-03T00:51:09.162Z,13
2016-11-03T00:54:45.415Z,13
2016-11-03T00:58:21.867Z,13
2016-11-03T01:01:59.153Z,13
2016-11-03T01:05:36.950Z,13
2016-11-03T01:14:17.221Z,12
2016-11-03T01:17:49.986Z,12
2016-11-03T01:22:05.777Z,12
2016-11-03T01:26:39.579Z,12
2016-11-03T01:30:53.848Z,13
2016-11-03T01:34:31.038Z,13
2016-11-03T01:42:06.748Z,12
2016-11-03T01:45:24.613Z,12
2016-11-03T01:49:02.211Z,12
2016-11-03T01:52:39.492Z,12
2016-11-03T01:56:44.027Z,12
2016-11-03T02:00:20.646Z,12
2016-11-03T02:08:31.120Z,12
2016-11-03T02:13:05.860Z,12
2016-11-03T02:17:18.099Z,12
2016-11-03T02:20:54.157Z,12
2016-11-03T02:24:41.020Z,12
2016-11-03T02:33:20.238Z,12
2016-11-03T02:38:05.358Z,12
2016-11-03T02:41:44.024Z,12
2016-11-03T02:45:43.388Z,12
2016-11-03T02:49:26.486Z,13
2016-11-03T02:53:02.820Z,13
2016-11-03T02:56:50.041Z,13
2016-11-03T03:04:25.290Z,12
2016-11-03T03:08:31.132Z,12
2016-11-03T03:16:27.840Z,12
2016-11-03T03:20:25.035Z,12
2016-11-03T03:25:04.237Z,12
2016-11-03T03:28:40.943Z,12
2016-11-03T03:32:17.923Z,12
2016-11-03T03:35:35.001Z,12
2016-11-03T03:39:11.334Z,12
2016-11-03T03:42:48.616Z,12
2016-11-03T03:46:25.820Z,12
2016-11-03T03:50:22.604Z,12
2016-11-03T03:53:39.980Z,12
2016-11-03T03:57:16.326Z,12
2016-11-03T04:00:53.270Z,12
2016-11-03T04:04:30.123Z,12
2016-11-03T04:08:07.906Z,12
2016-11-03T04:11:44.188Z,12
2016-11-03T04:15:21.910Z,12
2016-11-03T04:18:58.263Z,12
2016-11-03T04:22:35.781Z,12
2016-11-03T04:26:12.180Z,12
2016-11-03T04:29:50.007Z,12
2016-11-03T04:33:56.191Z,12
2016-11-03T04:37:54.540Z,12
2016-11-03T04:41:31.804Z,12
2016-11-03T04:44:48.985Z,12
2016-11-03T04:48:45.829Z,12
2016-11-03T04:52:23.073Z,12
2016-11-03T04:56:00.751Z,11
2016-11-03T04:59:44.451Z,11
2016-11-03T05:03:21.382Z,11
2016-11-03T05:06:58.811Z,11
2016-11-03T05:10:35.832Z,11
2016-11-03T05:14:12.662Z,11
2016-11-03T05:17:50.735Z,11
2016-11-03T05:21:49.556Z,11
2016-11-03T05:25:26.740Z,11
2016-11-03T05:28:43.957Z,11
2016-11-03T05:32:40.594Z,11
2016-11-03T05:36:17.995Z,11
2016-11-03T05:39:59.639Z,11
2016-11-03T05:43:36.415Z,11
2016-11-03T05:47:14.099Z,11
2016-11-03T05:50:50.319Z,11
2016-11-03T05:54:27.399Z,11
2016-11-03T05:58:33.543Z,11
2016-11-03T06:06:48.904Z,11
2016-11-03T06:13:40.877Z,11
2016-11-03T06:17:47.169Z,12
2016-11-03T06:21:55.353Z,12
2016-11-03T06:26:33.171Z,12
2016-11-03T06:30:09.804Z,12
2016-11-03T06:33:41.778Z,12
2016-11-03T06:37:54.577Z,12
2016-11-03T06:45:37.054Z,12
2016-11-03T06:49:13.004Z,12
2016-11-03T06:52:49.076Z,12
2016-11-03T06:56:25.454Z,12
2016-11-03T07:00:02.220Z,12
2016-11-03T07:03:38.577Z,12
2016-11-03T07:07:15.485Z,12
2016-11-03T07:10:33.410Z,12
2016-11-03T07:14:36.825Z,12
2016-11-03T07:17:54.005Z,12
2016-11-03T07:21:51.456Z,12
2016-11-03T07:25:08.554Z,12
2016-11-03T07:30:07.397Z,12
2016-11-03T07:34:14.866Z,13
2016-11-03T07:37:32.744Z,13
2016-11-03T07:42:38.595Z,13
2016-11-03T07:46:31.116Z,13
2016-11-03T07:50:27.142Z,14
2016-11-03T07:53:47.547Z,14
2016-11-03T07:58:16.548Z,14
2016-11-03T08:01:53.037Z,14
2016-11-03T08:05:29.476Z,14
2016-11-03T08:08:46.665Z,15
2016-11-03T08:12:43.474Z,15
2016-11-03T08:16:00.495Z,15
2016-11-03T08:19:36.863Z,15
2016-11-03T08:24:06.372Z,15
2016-11-03T08:27:42.494Z,16
2016-11-03T08:35:06.863Z,16
2016-11-03T08:39:04.432Z,16
2016-11-03T08:42:21.420Z,16
2016-11-03T08:45:58.703Z,16
2016-11-03T08:49:35.415Z,16
2016-11-03T08:53:12.195Z,16
2016-11-03T08:56:49.140Z,16
2016-11-03T09:00:26.389Z,16
2016-11-03T09:04:02.631Z,16
2016-11-03T09:07:40.460Z,16
2016-11-03T09:11:17.751Z,16
2016-11-03T09:14:54.575Z,17
2016-11-03T09:19:02.883Z,17
2016-11-03T09:22:39.144Z,17
2016-11-03T09:26:16.004Z,17
2016-11-03T09:29:53.836Z,17
2016-11-03T09:33:30.036Z,17
2016-11-03T09:37:07.621Z,17
2016-11-03T09:41:04.501Z,17
2016-11-03T09:44:41.228Z,17
2016-11-03T09:47:58.820Z,18
2016-11-03T09:51:35.386Z,18
2016-11-03T09:55:12.035Z,18
2016-11-03T09:58:49.195Z,18
2016-11-03T10:02:25.738Z,18
2016-11-03T10:06:03.236Z,18
2016-11-03T10:09:39.874Z,18
2016-11-03T10:13:17.210Z,18
2016-11-03T10:16:53.770Z,18
2016-11-03T10:20:31.260Z,19
2016-11-03T10:24:07.462Z,19
2016-11-03T10:27:45.738Z,19
2016-11-03T10:31:22.072Z,19
2016-11-03T10:34:59.383Z,19
2016-11-03T10:38:35.688Z,19
2016-11-03T10:42:33.093Z,19
2016-11-03T10:45:50.429Z,19
2016-11-03T10:49:27.349Z,19
2016-11-03T10:53:03.970Z,20
2016-11-03T10:56:41.821Z,20
2016-11-03T11:00:18.540Z,20
2016-11-03T11:03:55.687Z,20
2016-11-03T11:07:31.936Z,20
2016-11-03T11:11:29.211Z,20
2016-11-03T11:15:15.990Z,20
2016-11-03T11:19:46.179Z,20
2016-11-03T11:23:30.721Z,20
2016-11-03T11:31:42.130Z,20
2016-11-03T11:35:19.129Z,20
2016-11-03T11:43:42.073Z,20
2016-11-03T11:47:19.363Z,20
2016-11-03T11:50:56.289Z,20
2016-11-03T11:54:32.652Z,20
2016-11-03T11:58:37.707Z,20
2016-11-03T12:02:14.202Z,20
2016-11-03T12:05:50.804Z,20
2016-11-03T12:09:52.432Z,20
2016-11-03T12:14:02.593Z,20
2016-11-03T12:17:38.828Z,20
2016-11-03T12:21:55.377Z,20
2016-11-03T12:25:33.766Z,20
2016-11-03T12:29:10.051Z,20
2016-11-03T12:32:47.701Z,20
2016-11-03T12:36:44.305Z,20
2016-11-03T12:40:01.200Z,20
2016-11-03T12:43:38.075Z,20
2016-11-03T12:47:15.144Z,20
2016-11-03T12:50:51.874Z,20
2016-11-03T12:54:29.220Z,20
2016-11-03T12:58:05.994Z,20
2016-11-03T13:01:43.389Z,20
2016-11-03T13:05:40.858Z,20
2016-11-03T13:08:57.787Z,20
2016-11-03T13:12:33.916Z,20
2016-11-03T13:16:10.411Z,20
2016-11-03T13:19:48.020Z,20
2016-11-03T13:23:24.943Z,20
2016-11-03T13:27:01.995Z,20
2016-11-03T13:30:38.978Z,20
2016-11-03T13:39:18.803Z,20
2016-11-03T13:43:03.247Z,20
2016-11-03T13:46:39.935Z,20
2016-11-03T13:50:16.676Z,20
2016-11-03T13:54:48.512Z,20
2016-11-03T13:58:24.560Z,20
2016-11-03T14:06:17.500Z,20
2016-11-03T14:09:55.710Z,20
2016-11-03T14:13:32.697Z,20
2016-11-03T14:17:08.984Z,20
2016-11-03T14:20:45.648Z,20
2016-11-03T14:24:23.035Z,20
2016-11-03T14:28:00.226Z,20
2016-11-03T14:31:37.100Z,20
2016-11-03T14:35:34.124Z,20
2016-11-03T14:38:51.370Z,20
2016-11-03T14:42:27.879Z,20
2016-11-03T14:46:05.701Z,20
2016-11-03T14:49:41.721Z,20
2016-11-03T14:53:39.822Z,20
2016-11-03T15:06:04.933Z,19
2016-11-03T15:10:20.799Z,19
2016-11-03T15:14:55.266Z,19
2016-11-03T15:18:33.386Z,19
2016-11-03T15:22:10.908Z,19
2016-11-03T15:25:48.025Z,19
2016-11-03T15:29:24.414Z,19
2016-11-03T15:33:01.180Z,19
2016-11-03T15:36:37.824Z,19
2016-11-03T15:40:16.726Z,19
2016-11-03T15:43:52.910Z,19
2016-11-03T15:47:29.275Z,19
2016-11-03T15:51:27.820Z,19
2016-11-03T15:55:39.461Z,19
2016-11-03T15:59:25.324Z,18
2016-11-03T16:03:01.718Z,18
2016-11-03T16:06:38.014Z,18
2016-11-03T16:10:14.486Z,18
2016-11-03T16:13:51.283Z,18
2016-11-03T16:17:27.432Z,18
2016-11-03T16:21:31.711Z,18
2016-11-03T16:30:16.545Z,18
2016-11-03T16:34:32.437Z,17
2016-11-03T16:38:09.247Z,17
2016-11-03T16:41:45.453Z,17
2016-11-03T16:45:21.636Z,17
2016-11-03T16:48:57.982Z,17
2016-11-03T16:53:02.199Z,17
2016-11-03T16:56:38.168Z,17
2016-11-03T17:00:49.634Z,17
2016-11-03T17:04:25.831Z,17
2016-11-03T17:08:03.107Z,17
2016-11-03T17:12:03.455Z,17
2016-11-03T17:15:47.228Z,17
2016-11-03T17:19:18.104Z,17
2016-11-03T17:22:58.263Z,17
2016-11-03T17:26:15.701Z,17
2016-11-03T17:29:51.893Z,17
2016-11-03T17:33:28.755Z,17
2016-11-03T17:37:26.133Z,17
2016-11-03T17:41:02.892Z,16
2016-11-03T17:44:40.215Z,16
2016-11-03T17:48:17.155Z,16
2016-11-03T17:51:34.556Z,16
2016-11-03T17:56:07.852Z,16
2016-11-03T17:59:44.354Z,16
2016-11-03T18:03:21.283Z,16
2016-11-03T18:07:27.135Z,16
2016-11-03T18:11:03.491Z,16
2016-11-03T18:15:37.819Z,16
2016-11-03T18:18:57.337Z,16
2016-11-03T18:23:01.412Z,16
2016-11-03T18:26:38.094Z,16
2016-11-03T18:34:26.964Z,16
2016-11-03T18:38:03.675Z,16
2016-11-03T18:41:41.178Z,15
2016-11-03T18:45:18.244Z,15
2016-11-03T18:49:47.683Z,15
2016-11-03T18:53:24.737Z,15
2016-11-03T18:57:01.196Z,15
2016-11-03T19:00:18.881Z,15
2016-11-03T19:04:30.459Z,15
2016-11-03T19:08:15.122Z,15
2016-11-03T19:11:52.730Z,15
2016-11-03T19:15:29.847Z,15
2016-11-03T19:19:09.112Z,15
2016-11-03T19:23:13.440Z,15
2016-11-03T19:26:50.288Z,15
2016-11-03T19:30:28.497Z,15
2016-11-03T19:34:05.901Z,15
2016-11-03T19:37:42.903Z,15
2016-11-03T19:41:19.642Z,15
2016-11-03T19:45:29.027Z,14
2016-11-03T19:49:05.667Z,14
2016-11-03T19:52:38.557Z,14
2016-11-03T19:55:55.682Z,14
2016-11-03T20:03:40.361Z,14
2016-11-03T20:07:21.308Z,14
2016-11-03T20:17:01.175Z,14
2016-11-03T20:20:20.069Z,14
2016-11-03T20:24:45.780Z,14
2016-11-03T20:28:57.103Z,14
2016-11-03T20:32:43.629Z,14
2016-11-03T20:36:21.549Z,14
2016-11-03T20:39:58.075Z,14
2016-11-03T20:43:35.261Z,14
2016-11-03T20:48:06.544Z,14
2016-11-03T20:51:42.521Z,13
2016-11-03T20:55:19.215Z,13
2016-11-03T20:58:55.578Z,13
2016-11-03T21:02:32.508Z,13
2016-11-03T21:06:08.966Z,13
2016-11-03T21:09:48.020Z,13
2016-11-03T21:13:24.750Z,13
2016-11-03T21:17:01.801Z,13
2016-11-03T21:20:46.393Z,13
2016-11-03T21:24:44.074Z,13
2016-11-03T21:28:56.184Z,13
2016-11-03T21:32:28.347Z,13
2016-11-03T21:40:14.686Z,13
2016-11-03T21:43:59.262Z,13
2016-11-03T21:48:04.160Z,13
2016-11-03T21:51:40.502Z,13
2016-11-03T21:59:32.409Z,13
2016-11-03T22:03:09.338Z,13
2016-11-03T22:07:36.035Z,13
2016-11-03T22:11:43.235Z,13
2016-11-03T22:15:23.633Z,13
2016-11-03T22:19:01.599Z,13
2016-11-03T22:23:14.949Z,13
2016-11-03T22:26:53.719Z,12
2016-11-03T22:31:22.508Z,12
2016-11-03T22:35:10.893Z,12
2016-11-03T22:43:25.021Z,12
2016-11-03T22:47:01.693Z,12
2016-11-03T22:50:39.729Z,12
2016-11-03T22:58:16.614Z,12
2016-11-03T23:01:53.528Z,12
2016-11-03T23:05:30.358Z,12
2016-11-03T23:09:37.007Z,12
2016-11-03T23:18:24.297Z,12
2016-11-03T23:22:01.208Z,12
2016-11-03T23:25:18.454Z,12
2016-11-03T23:29:24.990Z,12
2016-11-03T23:33:03.242Z,12
2016-11-03T23:37:04.359Z,12
2016-11-03T23:41:08.213Z,12
2016-11-03T23:45:18.991Z,12
2016-11-03T23:48:55.662Z,12
2016-11-03T23:52:32.141Z,12
2016-11-03T23:56:08.912Z,12
2016-11-03T23:59:45.483Z,12
